createdAt,value
2018-11-20T00:01:06.909Z,81.42
2018-11-20T00:03:55.423Z,81.45
2018-11-20T00:06:43.900Z,81.38
2018-11-20T00:09:32.430Z,81.74
2018-11-20T00:12:20.920Z,82.00
2018-11-20T00:15:09.453Z,81.73
2018-11-20T00:17:57.961Z,81.61
2018-11-20T00:20:46.457Z,81.41
2018-11-20T00:23:30.409Z,81.84
2018-11-20T00:26:18.928Z,81.86
2018-11-20T00:29:07.421Z,82.23
2018-11-20T00:31:46.096Z,81.76
2018-11-20T00:34:34.637Z,81.56
2018-11-20T00:37:23.100Z,82.12
2018-11-20T00:40:11.709Z,82.26
2018-11-20T00:43:00.171Z,82.68
2018-11-20T00:45:48.706Z,82.94
2018-11-20T00:48:37.190Z,83.49
2018-11-20T00:51:25.724Z,83.06
2018-11-20T00:54:14.262Z,82.84
2018-11-20T00:57:02.771Z,82.62
2018-11-20T00:59:53.274Z,82.37
2018-11-20T01:02:41.865Z,82.28
2018-11-20T01:05:30.381Z,82.38
2018-11-20T01:08:18.869Z,82.17
2018-11-20T01:11:07.418Z,81.97
2018-11-20T01:13:55.931Z,82.65
2018-11-20T01:16:44.441Z,82.72
2018-11-20T01:19:33.012Z,82.92
2018-11-20T01:22:14.326Z,82.92
2018-11-20T01:25:02.869Z,82.97
2018-11-20T01:27:51.338Z,82.90
2018-11-20T01:30:39.884Z,82.57
2018-11-20T01:33:28.365Z,82.39
2018-11-20T01:36:16.885Z,82.54
2018-11-20T01:39:05.438Z,82.16
2018-11-20T01:41:53.955Z,81.78
2018-11-20T01:44:42.446Z,81.54
2018-11-20T01:47:30.970Z,81.58
2018-11-20T01:50:19.532Z,81.73
2018-11-20T01:53:08.085Z,81.84
2018-11-20T01:55:56.584Z,81.85
2018-11-20T01:58:45.152Z,82.13
2018-11-20T02:01:33.627Z,82.38
2018-11-20T02:04:22.155Z,82.76
2018-11-20T02:07:10.601Z,82.90
2018-11-20T02:09:59.128Z,82.85
2018-11-20T02:12:47.630Z,82.58
2018-11-20T02:15:36.387Z,82.46
2018-11-20T02:18:43.929Z,82.54
2018-11-20T02:21:32.493Z,82.99
2018-11-20T02:24:21.822Z,82.82
2018-11-20T02:27:10.241Z,82.67
2018-11-20T02:29:58.754Z,82.75
2018-11-20T02:32:47.275Z,82.44
2018-11-20T02:35:36.072Z,82.23
2018-11-20T02:38:24.643Z,82.32
2018-11-20T02:41:13.155Z,82.82
2018-11-20T02:44:01.803Z,82.81
2018-11-20T02:46:50.271Z,83.01
2018-11-20T02:49:38.737Z,82.52
2018-11-20T02:52:27.287Z,82.70
2018-11-20T02:55:16.813Z,83.20
2018-11-20T02:58:05.275Z,83.28
2018-11-20T03:01:14.981Z,84.03
2018-11-20T03:04:03.483Z,83.93
2018-11-20T03:06:51.969Z,83.73
2018-11-20T03:09:40.513Z,83.70
2018-11-20T03:12:28.964Z,83.34
2018-11-20T03:15:17.455Z,82.64
2018-11-20T03:18:05.941Z,82.53
2018-11-20T03:20:54.449Z,82.35
2018-11-20T03:23:42.929Z,82.31
2018-11-20T03:26:32.170Z,82.39
2018-11-20T03:29:58.411Z,82.23
2018-11-20T03:32:46.927Z,82.93
2018-11-20T03:35:35.476Z,83.08
2018-11-20T03:38:24.026Z,83.03
2018-11-20T03:41:12.521Z,83.18
2018-11-20T03:44:01.041Z,83.44
2018-11-20T03:46:49.849Z,83.62
2018-11-20T03:49:38.816Z,83.64
2018-11-20T03:52:27.369Z,83.30
2018-11-20T03:55:16.854Z,83.07
2018-11-20T03:58:05.330Z,83.18
2018-11-20T04:00:53.958Z,83.35
2018-11-20T04:03:42.465Z,82.95
2018-11-20T04:06:30.929Z,82.83
2018-11-20T04:09:19.475Z,82.82
2018-11-20T04:12:07.995Z,82.70
2018-11-20T04:14:56.515Z,83.28
2018-11-20T04:17:45.065Z,83.73
2018-11-20T04:20:33.545Z,83.97
2018-11-20T04:23:24.503Z,84.40
2018-11-20T04:26:13.057Z,84.03
2018-11-20T04:29:01.579Z,83.74
2018-11-20T04:31:56.411Z,83.66
2018-11-20T04:34:44.959Z,83.70
2018-11-20T04:37:33.772Z,83.33
2018-11-20T04:40:22.245Z,83.47
2018-11-20T04:43:10.765Z,83.09
2018-11-20T04:45:59.284Z,82.88
2018-11-20T04:48:47.747Z,82.95
2018-11-20T04:51:36.741Z,83.02
2018-11-20T04:54:25.375Z,82.52
2018-11-20T04:57:13.907Z,82.94
2018-11-20T05:02:59.963Z,82.93
2018-11-20T05:05:42.687Z,82.76
2018-11-20T05:08:31.204Z,82.26
2018-11-20T05:11:19.697Z,82.36
2018-11-20T05:14:09.214Z,82.20
2018-11-20T05:16:57.704Z,82.23
2018-11-20T05:19:46.263Z,82.08
2018-11-20T05:22:34.814Z,81.85
2018-11-20T05:25:23.294Z,81.88
2018-11-20T05:28:11.972Z,82.40
2018-11-20T05:30:51.248Z,83.13
2018-11-20T05:33:39.694Z,83.54
2018-11-20T05:36:28.198Z,83.90
2018-11-20T05:39:16.721Z,83.81
2018-11-20T05:42:05.204Z,84.79
2018-11-20T05:44:53.672Z,84.24
2018-11-20T05:47:41.317Z,83.70
2018-11-20T05:50:27.590Z,84.19
2018-11-20T05:53:16.100Z,84.29
2018-11-20T05:56:04.650Z,84.22
2018-11-20T05:58:53.135Z,84.69
2018-11-20T06:01:41.618Z,85.47
2018-11-20T06:04:30.119Z,85.16
2018-11-20T06:07:09.321Z,85.22
2018-11-20T06:09:57.779Z,85.71
2018-11-20T06:12:46.313Z,86.16
2018-11-20T06:18:16.115Z,86.63
2018-11-20T06:21:04.659Z,86.76
2018-11-20T06:23:53.165Z,86.69
2018-11-20T06:26:41.647Z,86.52
2018-11-20T06:29:30.169Z,86.54
2018-11-20T06:32:18.725Z,86.47
2018-11-20T06:35:07.382Z,86.24
2018-11-20T06:37:55.794Z,86.10
2018-11-20T06:40:44.324Z,86.13
2018-11-20T06:43:32.872Z,85.81
2018-11-20T06:46:21.388Z,85.64
2018-11-20T06:49:09.861Z,85.51
2018-11-20T06:51:58.966Z,85.20
2018-11-20T06:54:47.479Z,85.11
2018-11-20T06:57:36.045Z,85.09
2018-11-20T07:00:24.844Z,84.95
2018-11-20T07:03:13.332Z,84.85
2018-11-20T07:06:01.868Z,85.06
2018-11-20T07:08:50.393Z,85.08
2018-11-20T07:11:38.799Z,85.26
2018-11-20T07:14:29.808Z,85.71
2018-11-20T07:17:38.517Z,86.13
2018-11-20T07:20:27.431Z,86.54
2018-11-20T07:23:16.148Z,86.64
2018-11-20T07:26:04.665Z,86.59
2018-11-20T07:28:53.221Z,86.87
2018-11-20T07:31:46.671Z,87.06
2018-11-20T07:34:34.986Z,87.05
2018-11-20T07:37:23.859Z,86.73
2018-11-20T07:40:12.253Z,86.98
2018-11-20T07:43:00.869Z,86.86
2018-11-20T07:45:49.377Z,86.92
2018-11-20T07:48:37.886Z,86.84
2018-11-20T07:51:26.460Z,86.91
2018-11-20T07:54:14.907Z,86.91
2018-11-20T07:57:03.569Z,86.95
2018-11-20T07:59:52.045Z,87.03
2018-11-20T08:02:59.529Z,86.95
2018-11-20T08:08:33.296Z,87.49
2018-11-20T08:11:21.749Z,87.19
2018-11-20T08:14:10.222Z,87.15
2018-11-20T08:16:52.083Z,86.88
2018-11-20T08:19:40.556Z,86.41
2018-11-20T08:22:29.039Z,86.11
2018-11-20T08:25:17.703Z,85.88
2018-11-20T08:28:06.162Z,85.72
2018-11-20T08:30:54.962Z,85.51
2018-11-20T08:33:43.455Z,85.40
2018-11-20T08:36:31.949Z,85.70
2018-11-20T08:39:20.394Z,85.64
2018-11-20T08:42:08.940Z,85.87
2018-11-20T08:44:57.389Z,85.81
2018-11-20T08:47:46.059Z,85.70
2018-11-20T08:50:34.451Z,85.78
2018-11-20T08:53:23.582Z,85.78
2018-11-20T08:56:12.037Z,86.20
2018-11-20T08:58:54.552Z,86.08
2018-11-20T09:01:43.051Z,85.99
2018-11-20T09:04:31.530Z,85.51
2018-11-20T09:07:20.055Z,85.18
2018-11-20T09:10:08.706Z,85.15
2018-11-20T09:12:57.073Z,85.54
2018-11-20T09:15:45.595Z,85.51
2018-11-20T09:18:34.141Z,85.48
2018-11-20T09:21:22.761Z,85.03
2018-11-20T09:24:11.208Z,85.45
2018-11-20T09:26:59.681Z,85.75
2018-11-20T09:29:41.243Z,85.13
2018-11-20T09:32:29.740Z,84.94
2018-11-20T09:35:18.530Z,85.00
2018-11-20T09:38:10.201Z,84.54
2018-11-20T09:41:17.585Z,84.71
2018-11-20T09:44:33.555Z,84.86
2018-11-20T09:47:22.054Z,84.89
2018-11-20T09:50:10.663Z,84.80
2018-11-20T09:52:59.430Z,84.89
2018-11-20T09:55:47.793Z,85.09
2018-11-20T09:58:36.357Z,84.92
2018-11-20T10:01:25.163Z,85.57
2018-11-20T10:04:13.607Z,85.48
2018-11-20T10:07:02.380Z,85.19
2018-11-20T10:09:50.746Z,84.79
2018-11-20T10:12:29.079Z,85.15
2018-11-20T10:15:17.754Z,85.15
2018-11-20T10:18:06.043Z,85.41
2018-11-20T10:20:55.108Z,85.20
2018-11-20T10:23:43.610Z,84.74
2018-11-20T10:26:32.612Z,84.45
2018-11-20T10:29:21.257Z,84.16
2018-11-20T10:32:09.674Z,83.84
2018-11-20T10:35:00.556Z,82.81
2018-11-20T10:37:49.062Z,82.87
2018-11-20T10:40:37.603Z,82.26
2018-11-20T10:43:26.831Z,82.41
2018-11-20T10:46:15.510Z,82.50
2018-11-20T10:49:04.698Z,82.33
2018-11-20T10:51:53.349Z,81.47
2018-11-20T10:54:41.840Z,81.38
2018-11-20T10:57:30.406Z,81.71
2018-11-20T11:00:18.931Z,81.76
2018-11-20T11:03:07.492Z,81.52
2018-11-20T11:05:56.060Z,81.65
2018-11-20T11:08:44.916Z,81.19
2018-11-20T11:11:52.457Z,81.25
2018-11-20T11:14:41.958Z,81.60
2018-11-20T11:17:30.581Z,80.47
2018-11-20T11:20:18.991Z,80.12
2018-11-20T11:22:55.666Z,80.72
2018-11-20T11:25:44.886Z,82.37
2018-11-20T11:28:33.470Z,82.73
2018-11-20T11:31:22.093Z,81.97
2018-11-20T11:34:10.556Z,81.70
2018-11-20T11:36:59.069Z,81.22
2018-11-20T11:39:47.546Z,81.28
2018-11-20T11:42:36.079Z,81.05
2018-11-20T11:45:24.693Z,80.82
2018-11-20T11:48:13.175Z,81.10
2018-11-20T11:51:01.719Z,81.90
2018-11-20T11:53:50.233Z,81.38
2018-11-20T11:56:34.101Z,81.43
2018-11-20T11:59:23.454Z,81.31
2018-11-20T12:04:59.637Z,81.29
2018-11-20T12:07:48.115Z,80.93
2018-11-20T12:10:36.668Z,80.78
2018-11-20T12:13:25.204Z,80.40
2018-11-20T12:16:13.725Z,79.92
2018-11-20T12:19:02.225Z,79.77
2018-11-20T12:21:50.730Z,79.92
2018-11-20T12:24:39.219Z,79.62
2018-11-20T12:27:27.719Z,80.47
2018-11-20T12:30:16.196Z,80.36
2018-11-20T12:33:04.803Z,80.61
2018-11-20T12:35:54.627Z,81.24
2018-11-20T12:38:43.445Z,80.48
2018-11-20T12:41:30.293Z,80.72
2018-11-20T12:49:42.299Z,81.26
2018-11-20T12:52:30.837Z,81.27
2018-11-20T12:55:19.392Z,81.45
2018-11-20T12:58:08.010Z,80.95
2018-11-20T13:00:56.516Z,80.57
2018-11-20T13:03:44.984Z,80.48
2018-11-20T13:06:33.472Z,80.60
2018-11-20T13:09:21.982Z,80.58
2018-11-20T13:12:10.491Z,80.40
2018-11-20T13:14:59.004Z,80.30
2018-11-20T13:17:49.139Z,80.16
2018-11-20T13:20:35.994Z,80.18
2018-11-20T13:23:25.553Z,80.45
2018-11-20T13:26:13.764Z,80.31
2018-11-20T13:29:02.266Z,79.97
2018-11-20T13:31:50.839Z,80.56
2018-11-20T13:34:39.341Z,80.45
2018-11-20T13:42:53.900Z,80.50
2018-11-20T13:45:43.782Z,80.96
2018-11-20T13:48:21.181Z,80.42
2018-11-20T13:51:09.725Z,81.30
2018-11-20T13:57:06.200Z,82.19
2018-11-20T14:00:01.308Z,82.50
2018-11-20T14:02:43.303Z,82.48
2018-11-20T14:05:31.765Z,82.30
2018-11-20T14:08:21.636Z,82.37
2018-11-20T14:11:10.227Z,82.35
2018-11-20T14:14:01.014Z,82.30
2018-11-20T14:16:49.504Z,81.89
2018-11-20T14:19:38.962Z,82.35
2018-11-20T14:22:28.472Z,82.44
2018-11-20T14:25:17.309Z,82.57
2018-11-20T14:28:05.812Z,83.37
2018-11-20T14:30:46.801Z,83.30
2018-11-20T14:33:35.355Z,83.33
2018-11-20T14:36:23.880Z,83.62
2018-11-20T14:39:12.375Z,83.71
2018-11-20T14:42:00.937Z,83.13
2018-11-20T14:44:49.429Z,82.99
2018-11-20T14:47:37.971Z,82.66
2018-11-20T14:50:27.862Z,82.41
2018-11-20T14:53:16.422Z,82.28
2018-11-20T14:56:05.009Z,82.21
2018-11-20T14:58:53.563Z,82.65
2018-11-20T15:01:42.866Z,82.58
2018-11-20T15:04:31.446Z,82.94
2018-11-20T15:07:19.929Z,83.21
2018-11-20T15:10:08.481Z,83.14
2018-11-20T15:12:57.023Z,83.04
2018-11-20T15:15:46.158Z,83.23
2018-11-20T15:18:35.532Z,83.01
2018-11-20T15:21:24.096Z,82.97
2018-11-20T15:24:12.583Z,83.10
2018-11-20T15:27:01.175Z,83.23
2018-11-20T15:29:49.664Z,82.78
2018-11-20T15:32:38.165Z,82.88
2018-11-20T15:35:26.725Z,82.88
2018-11-20T15:38:15.230Z,83.24
2018-11-20T15:41:03.773Z,83.25
2018-11-20T15:43:52.272Z,83.01
2018-11-20T15:46:40.802Z,83.01
2018-11-20T15:49:34.965Z,82.60
2018-11-20T15:52:17.796Z,82.16
2018-11-20T15:55:06.485Z,81.94
2018-11-20T15:57:55.015Z,82.28
2018-11-20T16:01:28.961Z,82.87
2018-11-20T16:04:16.676Z,83.00
2018-11-20T16:07:04.373Z,82.48
2018-11-20T16:09:52.035Z,82.50
2018-11-20T16:12:39.865Z,81.91
2018-11-20T16:15:27.993Z,82.00
2018-11-20T16:18:15.676Z,81.99
2018-11-20T16:21:03.337Z,81.83
2018-11-20T16:23:51.006Z,82.20
2018-11-20T16:26:39.161Z,82.47
2018-11-20T16:29:26.885Z,82.34
2018-11-20T16:32:14.572Z,81.70
2018-11-20T16:35:00.661Z,81.56
2018-11-20T16:37:48.350Z,81.54
2018-11-20T16:40:36.056Z,82.15
2018-11-20T16:43:24.017Z,82.20
2018-11-20T16:46:11.706Z,81.74
2018-11-20T16:48:59.400Z,82.02
2018-11-20T16:51:47.115Z,82.06
2018-11-20T16:54:34.800Z,82.37
2018-11-20T16:57:22.503Z,82.91
2018-11-20T17:00:10.325Z,82.72
2018-11-20T17:02:58.001Z,81.42
2018-11-20T17:05:46.113Z,81.70
2018-11-20T17:08:33.787Z,81.82
2018-11-20T17:11:21.408Z,82.19
2018-11-20T17:14:09.058Z,81.83
2018-11-20T17:16:56.728Z,81.84
2018-11-20T17:19:44.548Z,81.83
2018-11-20T17:22:32.290Z,81.95
2018-11-20T17:25:16.902Z,81.65
2018-11-20T17:28:04.593Z,81.95
2018-11-20T17:30:52.304Z,82.63
2018-11-20T17:33:39.995Z,82.78
2018-11-20T17:36:27.639Z,82.82
2018-11-20T17:39:16.552Z,83.04
2018-11-20T17:42:04.172Z,82.88
2018-11-20T17:44:53.623Z,82.79
2018-11-20T17:47:39.529Z,82.63
2018-11-20T17:50:28.361Z,82.51
2018-11-20T17:53:16.106Z,82.45
2018-11-20T17:56:03.765Z,82.92
2018-11-20T17:58:51.596Z,82.72
2018-11-20T18:01:39.309Z,82.99
2018-11-20T18:04:17.068Z,83.12
2018-11-20T18:07:04.710Z,83.52
2018-11-20T18:09:52.432Z,83.83
2018-11-20T18:12:40.284Z,83.15
2018-11-20T18:15:27.954Z,83.26
2018-11-20T18:18:15.645Z,84.26
2018-11-20T18:21:03.367Z,84.44
2018-11-20T18:23:51.054Z,84.60
2018-11-20T18:26:38.772Z,84.36
2018-11-20T18:29:26.493Z,84.49
2018-11-20T18:32:14.185Z,84.48
2018-11-20T18:34:51.777Z,84.26
2018-11-20T18:37:39.417Z,84.09
2018-11-20T18:40:27.449Z,84.28
2018-11-20T18:43:15.117Z,83.92
2018-11-20T18:46:22.056Z,83.80
2018-11-20T18:49:09.725Z,83.65
2018-11-20T18:51:57.405Z,83.93
2018-11-20T18:54:45.161Z,83.91
2018-11-20T18:57:32.926Z,84.08
2018-11-20T19:00:20.751Z,84.22
2018-11-20T19:03:08.483Z,84.41
2018-11-20T19:05:56.228Z,84.92
2018-11-20T19:08:43.898Z,85.21
2018-11-20T19:11:31.726Z,84.83
2018-11-20T19:14:19.410Z,85.22
2018-11-20T19:17:07.143Z,85.10
2018-11-20T19:19:54.814Z,85.01
2018-11-20T19:22:32.105Z,84.60
2018-11-20T19:25:19.822Z,84.42
2018-11-20T19:28:07.466Z,83.94
2018-11-20T19:30:55.282Z,83.50
2018-11-20T19:33:43.037Z,84.29
2018-11-20T19:36:30.727Z,84.56
2018-11-20T19:39:18.558Z,84.50
2018-11-20T19:41:57.701Z,84.43
2018-11-20T19:44:45.435Z,84.77
2018-11-20T19:47:26.559Z,84.60
2018-11-20T19:50:14.271Z,84.71
2018-11-20T19:53:02.077Z,84.83
2018-11-20T19:55:49.517Z,85.53
2018-11-20T19:58:37.258Z,85.40
2018-11-20T20:01:25.078Z,85.56
2018-11-20T20:04:12.806Z,85.36
2018-11-20T20:07:01.500Z,85.22
2018-11-20T20:09:49.240Z,85.00
2018-11-20T20:12:38.036Z,84.73
2018-11-20T20:15:26.450Z,84.99
2018-11-20T20:18:14.174Z,84.70
2018-11-20T20:21:02.703Z,84.83
2018-11-20T20:23:51.252Z,84.23
2018-11-20T20:26:39.103Z,84.18
2018-11-20T20:29:26.813Z,84.15
2018-11-20T20:32:14.579Z,84.05
2018-11-20T20:35:02.363Z,83.69
2018-11-20T20:37:50.168Z,83.64
2018-11-20T20:40:37.860Z,83.52
2018-11-20T20:43:27.598Z,83.62
2018-11-20T20:46:15.338Z,83.51
2018-11-20T20:48:52.422Z,83.65
2018-11-20T20:51:40.162Z,83.41
2018-11-20T20:54:28.025Z,83.45
2018-11-20T20:57:15.763Z,83.57
2018-11-20T21:03:00.164Z,84.03
2018-11-20T21:05:47.835Z,83.97
2018-11-20T21:08:35.491Z,83.97
2018-11-20T21:11:23.160Z,83.82
2018-11-20T21:14:10.951Z,83.63
2018-11-20T21:16:58.632Z,83.83
2018-11-20T21:19:47.268Z,83.69
2018-11-20T21:22:34.957Z,83.56
2018-11-20T21:25:22.660Z,83.88
2018-11-20T21:28:10.343Z,83.87
2018-11-20T21:30:58.134Z,84.08
2018-11-20T21:33:45.823Z,84.48
2018-11-20T21:36:33.555Z,84.69
2018-11-20T21:39:21.255Z,84.58
2018-11-20T21:42:08.947Z,84.54
2018-11-20T21:44:56.645Z,84.56
2018-11-20T21:47:44.312Z,84.48
2018-11-20T21:50:32.004Z,84.79
2018-11-20T21:53:19.811Z,84.91
2018-11-20T21:56:07.539Z,85.00
2018-11-20T21:58:45.835Z,85.13
2018-11-20T22:01:33.503Z,84.99
2018-11-20T22:04:21.221Z,85.22
2018-11-20T22:07:08.889Z,85.09
2018-11-20T22:09:56.569Z,85.38
2018-11-20T22:12:44.310Z,85.28
2018-11-20T22:15:31.986Z,85.08
2018-11-20T22:18:20.112Z,85.34
2018-11-20T22:21:07.780Z,85.11
2018-11-20T22:23:55.519Z,84.87
2018-11-20T22:26:43.159Z,84.16
2018-11-20T22:29:30.912Z,84.52
2018-11-20T22:32:18.581Z,84.45
2018-11-20T22:35:06.248Z,84.50
2018-11-20T22:37:53.992Z,84.02
2018-11-20T22:40:41.674Z,84.11
2018-11-20T22:43:29.416Z,84.53
2018-11-20T22:46:17.137Z,84.91
2018-11-20T22:49:04.821Z,85.15
2018-11-20T22:51:53.050Z,84.99
2018-11-20T22:54:40.747Z,84.53
2018-11-20T22:57:28.404Z,84.74
2018-11-20T23:00:16.033Z,84.75
2018-11-20T23:03:03.744Z,84.62
2018-11-20T23:05:50.369Z,84.91
2018-11-20T23:08:19.041Z,84.57
2018-11-20T23:10:47.746Z,84.47
2018-11-20T23:13:16.443Z,84.39
2018-11-20T23:15:45.113Z,84.36
2018-11-20T23:18:13.804Z,84.33
2018-11-20T23:20:42.477Z,84.23
2018-11-20T23:23:11.213Z,83.82
2018-11-20T23:25:39.897Z,83.83
2018-11-20T23:28:08.574Z,83.14
2018-11-20T23:30:37.285Z,83.29
2018-11-20T23:33:06.299Z,83.26
2018-11-20T23:35:35.020Z,83.36
2018-11-20T23:38:03.731Z,83.46
2018-11-20T23:40:32.465Z,84.34
2018-11-20T23:43:01.174Z,84.27
2018-11-20T23:45:29.873Z,84.09
2018-11-20T23:47:58.523Z,84.19
2018-11-20T23:50:27.216Z,83.75
2018-11-20T23:52:55.881Z,83.58
2018-11-20T23:55:24.605Z,83.70
2018-11-20T23:57:53.264Z,84.00
